PGUM Airport Information

Runway Information
Runway 06L Length 10015 ft width 150 ft
Elevation 239 ft Threshold 0 ft Heading 65
Runway 24R Length 10015 ft Width 150 ft
Elevation 297 ft Threshold 0 ft Heading 245
Runway 06R Length 8001 ft width 150 ft
Elevation 231 ft Threshold 0 ft Heading 65
Runway 24L Length 8001 ft Width 150 ft
Elevation 284 ft Threshold 0 ft Heading 245
Airport Frequencies
Type A/D Name APP/DEP Frequency 118.7 MHZ
Type ARTC Name GUAM CERAP Frequency 120.5 MHZ
Type ATIS Name ATIS Frequency 119 MHZ
Type CLD Name CLNC DEL Frequency 121.9 MHZ
Type GND Name GND Frequency 121.9 MHZ
Type RMP Name RAMP Frequency 121.6 MHZ
Type TWR Name AGANA TWR Frequency 118.1 MHZ
Airport Navaids
Type NDB Name Mt Macajna Frequency 385 KHZ
Type VORTAC Name Nimitz Frequency 115300 KHZ
Airport Weather Information & NOTAM
ADDS - METARS form results

(1110 UTC 20 October 2021)
Data provider http://aviationweather.gov/metar/data/
 
METAR text: PGUM 201054Z 11008KT 7SM -RA FEW024 BKN090 BKN110 25/24 A2995 RMK AO2 RAB47 SL NO CARRIER RING CONNECT 1200
Conditions at: PGUM (AGANA , GU, US) observed 1054 UTC 20 October 2021
Temperature: 25.0°C (77°F)
Dewpoint: 24.0°C (75°F) [RH = 94%]
Pressure (altimeter): 29.95 inches Hg (1014.3 mb)
Winds: from the ESE (110 degrees) at 9 MPH (8 knots; 4.1 m/s)
Visibility: 7 miles (11 km)
Ceiling: 9000 feet AGL
Clouds: few clouds at 2400 feet AGL
broken clouds at 9000 feet AGL
broken clouds at 11000 feet AGL
Weather: -RA  (light rain)

METAR text: PGUM 201020Z 20004KT 10SM SCT021 25/24 A2994 RMK AO2 T02500244
Conditions at: PGUM (AGANA , GU, US) observed 1020 UTC 20 October 2021
Temperature: 25.0°C (77°F)
Dewpoint: 24.4°C (76°F) [RH = 96%]
Pressure (altimeter): 29.94 inches Hg (1014.0 mb)
Winds: from the SSW (200 degrees) at 5 MPH (4 knots; 2.1 m/s)
Visibility: 10 or more miles (16+ km)
Ceiling: at least 12,000 feet AGL
Clouds: scattered clouds at 2100 feet AGL
Weather: no significant weather observed at this time

Forecast for: PGUM (AGANA , GU, US)
Text: PGUM 201024Z 2010/2112 VRB06KT P6SM VCSH SCT018 SCT050
Forecast period: 1000 UTC 20 October 2021 to 1200 UTC 21 October 2021
Forecast type: FROM: standard forecast or significant change
Winds: variable direction winds at 7 MPH (6 knots; 3.1 m/s)
Visibility: 6 or more miles (10+ km)
Ceiling: at least 12,000 feet AGL
Clouds: scattered clouds at 1800 feet AGL
scattered clouds at 5000 feet AGL
Weather: VCSH  (showers in vicinity)
Text: TEMPO 2010/2012 08013KT 1SM +SHRA BKN015
Forecast period: 1000 to 1200 UTC 20 October 2021
Forecast type: TEMPORARY: The following changes expected for less than half the time period
Winds: from the E (80 degrees) at 15 MPH (13 knots; 6.7 m/s)
Visibility: 1.00 miles (1.61 km)
Ceiling: 1500 feet AGL
Clouds: broken clouds at 1500 feet AGL
Weather: +SHRA  (heavy rain showers)